createdAt,value
2019-04-25T00:01:52.377Z,61.37
2019-04-25T00:04:19.063Z,61.51
2019-04-25T00:06:45.637Z,62.45
2019-04-25T00:09:12.283Z,62.64
2019-04-25T00:11:39.890Z,62.58
2019-04-25T00:14:06.548Z,62.56
2019-04-25T00:16:36.918Z,62.58
2019-04-25T00:19:03.775Z,63.20
2019-04-25T00:21:32.051Z,62.40
2019-04-25T00:24:02.630Z,62.49
2019-04-25T00:26:32.683Z,62.48
2019-04-25T00:28:59.036Z,62.29
2019-04-25T00:31:31.885Z,62.22
2019-04-25T00:33:59.183Z,62.16
2019-04-25T00:36:25.562Z,62.45
2019-04-25T00:38:54.312Z,62.71
2019-04-25T00:41:23.689Z,61.79
2019-04-25T00:43:53.606Z,62.12
2019-04-25T00:46:22.577Z,62.47
2019-04-25T00:48:52.586Z,62.23
2019-04-25T00:51:19.542Z,62.16
2019-04-25T00:53:48.151Z,62.26
2019-04-25T00:56:15.404Z,62.35
2019-04-25T00:58:43.965Z,62.47
2019-04-25T01:01:15.105Z,62.58
2019-04-25T01:03:45.301Z,62.78
2019-04-25T01:06:13.224Z,62.89
2019-04-25T01:08:41.422Z,63.09
2019-04-25T01:11:11.539Z,63.17
2019-04-25T01:13:37.916Z,62.74
2019-04-25T01:16:05.181Z,62.81
2019-04-25T01:18:33.597Z,62.11
2019-04-25T01:21:05.146Z,62.37
2019-04-25T01:23:33.555Z,62.04
2019-04-25T01:26:00.606Z,61.78
2019-04-25T01:28:27.291Z,62.00
2019-04-25T01:30:56.802Z,62.09
2019-04-25T01:33:23.553Z,62.14
2019-04-25T01:35:54.283Z,62.17
2019-04-25T01:38:20.842Z,62.05
2019-04-25T01:40:49.425Z,61.83
2019-04-25T01:43:16.364Z,62.32
2019-04-25T01:45:44.264Z,62.25
2019-04-25T01:48:13.638Z,61.85
2019-04-25T01:50:39.510Z,61.76
2019-04-25T01:53:08.870Z,61.29
2019-04-25T01:55:37.575Z,61.29
2019-04-25T01:58:05.087Z,61.73
2019-04-25T02:00:35.132Z,61.71
2019-04-25T02:03:04.348Z,60.94
2019-04-25T02:05:31.719Z,61.59
2019-04-25T02:08:00.620Z,61.93
2019-04-25T02:10:27.687Z,61.75
2019-04-25T02:12:58.086Z,61.79
2019-04-25T02:15:26.917Z,62.76
2019-04-25T02:17:57.168Z,62.66
2019-04-25T02:20:24.370Z,62.79
2019-04-25T02:22:52.251Z,62.74
2019-04-25T02:25:20.153Z,62.08
2019-04-25T02:27:46.756Z,61.99
2019-04-25T02:30:15.816Z,62.15
2019-04-25T02:32:44.409Z,62.22
2019-04-25T02:35:14.205Z,62.01
2019-04-25T02:37:45.243Z,61.76
2019-04-25T02:40:13.981Z,61.82
2019-04-25T02:42:44.256Z,61.46
2019-04-25T02:45:16.264Z,61.72
2019-04-25T02:47:44.121Z,62.26
2019-04-25T02:50:09.946Z,62.59
2019-04-25T02:52:40.609Z,62.62
2019-04-25T02:55:10.810Z,62.96
2019-04-25T02:57:38.340Z,62.90
2019-04-25T03:00:08.756Z,62.29
2019-04-25T03:02:37.036Z,62.33
2019-04-25T03:05:09.249Z,62.79
2019-04-25T03:07:36.095Z,62.62
2019-04-25T03:10:06.212Z,63.16
2019-04-25T03:12:36.311Z,64.22
2019-04-25T03:15:05.436Z,63.98
2019-04-25T03:17:34.261Z,63.48
2019-04-25T03:20:06.667Z,63.79
2019-04-25T03:22:35.234Z,63.70
2019-04-25T03:25:06.785Z,63.60
2019-04-25T03:27:33.931Z,63.48
2019-04-25T03:30:04.455Z,64.18
2019-04-25T03:32:31.464Z,64.24
2019-04-25T03:34:58.137Z,64.75
2019-04-25T03:37:26.625Z,64.82
2019-04-25T03:39:57.733Z,65.13
2019-04-25T03:42:30.414Z,65.50
2019-04-25T03:44:56.990Z,64.73
2019-04-25T03:47:27.213Z,64.31
2019-04-25T03:49:57.184Z,64.16
2019-04-25T03:52:30.268Z,63.94
2019-04-25T03:54:59.216Z,64.18
2019-04-25T03:57:28.170Z,64.58
2019-04-25T03:59:56.898Z,64.80
2019-04-25T04:02:25.129Z,65.32
2019-04-25T04:04:53.756Z,65.41
2019-04-25T04:07:24.320Z,65.53
2019-04-25T04:09:51.172Z,66.48
2019-04-25T04:12:18.579Z,66.19
2019-04-25T04:14:47.336Z,65.04
2019-04-25T04:17:16.228Z,65.08
2019-04-25T04:19:45.781Z,64.63
2019-04-25T04:22:16.268Z,64.39
2019-04-25T04:24:46.065Z,64.29
2019-04-25T04:27:16.730Z,64.62
2019-04-25T04:29:45.892Z,64.15
2019-04-25T04:32:16.313Z,63.80
2019-04-25T04:34:45.788Z,62.66
2019-04-25T04:37:16.260Z,61.48
2019-04-25T04:39:47.057Z,61.25
2019-04-25T04:42:17.918Z,62.12
2019-04-25T04:44:49.180Z,62.77
2019-04-25T04:47:18.535Z,63.34
2019-04-25T04:49:46.417Z,62.84
2019-04-25T04:52:16.759Z,62.42
2019-04-25T04:54:44.749Z,61.67
2019-04-25T04:57:23.123Z,62.33
2019-04-25T04:59:43.865Z,62.06
2019-04-25T05:02:09.312Z,61.51
2019-04-25T05:04:35.908Z,60.68
2019-04-25T05:07:08.696Z,60.04
2019-04-25T05:09:35.476Z,59.62
2019-04-25T05:12:04.377Z,59.01
2019-04-25T05:14:33.696Z,58.87
2019-04-25T05:17:04.350Z,58.91
2019-04-25T05:19:30.910Z,58.36
2019-04-25T05:21:59.966Z,58.68
2019-04-25T05:24:34.789Z,58.38
2019-04-25T05:26:59.582Z,58.49
2019-04-25T05:29:29.275Z,58.26
2019-04-25T05:31:57.897Z,57.99
2019-04-25T05:34:25.819Z,58.53
2019-04-25T05:36:53.869Z,56.84
2019-04-25T05:39:20.667Z,56.08
2019-04-25T05:41:47.313Z,55.86
2019-04-25T05:44:15.784Z,56.17
2019-04-25T05:46:43.759Z,57.28
2019-04-25T05:49:13.745Z,56.60
2019-04-25T05:51:40.911Z,55.64
2019-04-25T05:54:10.168Z,55.31
2019-04-25T05:56:36.742Z,54.74
2019-04-25T05:59:05.476Z,54.52
2019-04-25T06:01:32.192Z,54.82
2019-04-25T06:04:01.269Z,54.39
2019-04-25T06:06:30.349Z,55.19
2019-04-25T06:08:56.959Z,53.54
2019-04-25T06:11:23.964Z,53.70
2019-04-25T06:13:55.049Z,53.14
2019-04-25T06:16:27.055Z,53.29
2019-04-25T06:18:54.934Z,52.65
2019-04-25T06:21:23.591Z,52.63
2019-04-25T06:23:52.269Z,53.07
2019-04-25T06:26:29.937Z,53.20
2019-04-25T06:28:53.693Z,53.16
2019-04-25T06:31:15.921Z,52.64
2019-04-25T06:33:44.303Z,52.16
2019-04-25T06:36:14.044Z,51.19
2019-04-25T06:38:40.651Z,51.06
2019-04-25T06:41:07.333Z,51.03
2019-04-25T06:43:37.503Z,50.50
2019-04-25T06:46:04.335Z,49.39
2019-04-25T06:48:33.562Z,49.50
2019-04-25T06:51:06.530Z,49.05
2019-04-25T06:53:35.493Z,49.60
2019-04-25T06:56:05.456Z,47.84
2019-04-25T06:58:36.138Z,46.73
2019-04-25T07:01:03.409Z,45.64
2019-04-25T07:03:30.046Z,45.64
2019-04-25T07:05:59.713Z,43.93
2019-04-25T07:08:31.605Z,45.33
2019-04-25T07:11:03.899Z,46.04
2019-04-25T07:13:30.404Z,44.83
2019-04-25T07:15:57.236Z,42.91
2019-04-25T07:18:30.262Z,43.49
2019-04-25T07:20:55.573Z,43.56
2019-04-25T07:23:23.659Z,42.94
2019-04-25T07:25:50.904Z,42.21
2019-04-25T07:28:24.333Z,42.71
2019-04-25T07:30:51.644Z,40.40
2019-04-25T07:33:15.774Z,39.91
2019-04-25T07:35:43.447Z,42.33
2019-04-25T07:38:14.141Z,42.30
2019-04-25T07:40:41.008Z,39.72
2019-04-25T07:43:11.202Z,39.97
2019-04-25T07:45:41.476Z,41.57
2019-04-25T07:50:53.714Z,39.81
2019-04-25T07:53:24.025Z,42.46
2019-04-25T07:55:51.201Z,39.00
2019-04-25T07:58:34.084Z,39.00
2019-04-25T08:00:53.980Z,39.44
2019-04-25T08:03:20.811Z,39.22
2019-04-25T08:05:48.878Z,39.46
2019-04-25T08:08:19.332Z,39.06
2019-04-25T08:10:47.261Z,39.01
2019-04-25T08:13:14.653Z,39.58
2019-04-25T08:15:43.667Z,39.18
2019-04-25T08:18:11.657Z,39.90
2019-04-25T08:20:40.893Z,38.69
2019-04-25T08:23:11.808Z,40.50
2019-04-25T08:25:40.791Z,39.71
2019-04-25T08:28:08.734Z,38.08
2019-04-25T08:30:38.230Z,37.19
2019-04-25T08:33:07.556Z,39.29
2019-04-25T08:35:36.543Z,37.53
2019-04-25T08:38:05.756Z,36.34
2019-04-25T08:40:35.802Z,35.95
2019-04-25T08:43:04.926Z,37.72
2019-04-25T08:45:37.032Z,38.62
2019-04-25T08:48:06.886Z,37.12
2019-04-25T08:50:39.303Z,38.27
2019-04-25T08:53:04.768Z,36.25
2019-04-25T08:55:32.996Z,37.54
2019-04-25T08:58:01.409Z,35.98
2019-04-25T09:00:28.273Z,35.59
2019-04-25T09:02:55.366Z,35.05
2019-04-25T09:05:36.033Z,36.10
2019-04-25T09:08:04.177Z,33.54
2019-04-25T09:10:31.272Z,34.05
2019-04-25T09:12:57.861Z,34.54
2019-04-25T09:15:27.106Z,35.88
2019-04-25T09:17:54.895Z,33.06
2019-04-25T09:20:24.210Z,33.70
2019-04-25T09:22:51.283Z,33.34
2019-04-25T09:25:26.788Z,32.33
2019-04-25T09:27:55.488Z,33.03
2019-04-25T09:30:25.117Z,32.50
2019-04-25T09:32:54.297Z,31.93
2019-04-25T09:35:25.656Z,30.37
2019-04-25T09:37:55.519Z,28.81
2019-04-25T09:40:24.897Z,29.69
2019-04-25T09:42:54.341Z,31.27
2019-04-25T09:45:26.145Z,29.16
2019-04-25T09:47:54.532Z,30.07
2019-04-25T09:50:21.478Z,29.23
2019-04-25T09:52:49.850Z,27.89
2019-04-25T09:55:16.428Z,27.62
2019-04-25T09:57:44.519Z,27.81
2019-04-25T10:00:13.258Z,27.92
2019-04-25T10:02:40.306Z,26.08
2019-04-25T10:05:07.710Z,26.06
2019-04-25T10:07:40.548Z,27.33
2019-04-25T10:10:08.655Z,27.30
2019-04-25T10:12:39.008Z,27.88
2019-04-25T10:15:05.895Z,27.48
2019-04-25T10:17:37.722Z,29.13
2019-04-25T10:20:08.987Z,27.16
2019-04-25T10:22:35.818Z,28.30
2019-04-25T10:25:04.752Z,28.13
2019-04-25T10:30:20.711Z,27.50
2019-04-25T10:32:48.723Z,28.06
2019-04-25T10:35:15.554Z,25.15
2019-04-25T10:37:46.562Z,27.73
2019-04-25T10:40:16.427Z,25.85
2019-04-25T10:42:46.456Z,26.51
2019-04-25T10:45:23.202Z,26.18
2019-04-25T10:47:45.316Z,26.67
2019-04-25T10:50:13.535Z,26.92
2019-04-25T10:52:44.505Z,26.07
2019-04-25T10:55:11.761Z,24.60
2019-04-25T10:57:39.681Z,26.37
2019-04-25T11:00:09.488Z,25.41
2019-04-25T11:02:37.324Z,25.73
2019-04-25T11:05:04.495Z,24.75
2019-04-25T11:07:34.065Z,23.27
2019-04-25T11:10:04.928Z,24.52
2019-04-25T11:12:33.792Z,25.70
2019-04-25T11:15:00.955Z,25.12
2019-04-25T11:17:33.886Z,24.34
2019-04-25T11:20:03.605Z,24.08
2019-04-25T11:22:29.239Z,24.07
2019-04-25T11:24:56.421Z,25.04
2019-04-25T11:27:25.046Z,25.16
2019-04-25T11:30:10.492Z,23.26
2019-04-25T11:32:26.731Z,24.96
2019-04-25T11:34:57.270Z,24.97
2019-04-25T11:37:23.916Z,24.07
2019-04-25T11:42:39.108Z,23.67
2019-04-25T11:45:08.829Z,24.50
2019-04-25T11:47:39.396Z,24.70
2019-04-25T11:50:22.258Z,25.27
2019-04-25T11:52:53.082Z,24.20
2019-04-25T11:55:21.800Z,23.72
2019-04-25T11:57:54.706Z,23.81
2019-04-25T12:00:24.021Z,24.42
2019-04-25T12:02:52.354Z,23.65
2019-04-25T12:05:23.479Z,22.68
2019-04-25T12:07:55.133Z,24.62
2019-04-25T12:10:30.536Z,23.69
2019-04-25T12:12:57.868Z,24.98
2019-04-25T12:15:24.762Z,24.25
2019-04-25T12:17:56.047Z,23.28
2019-04-25T12:20:22.964Z,25.32
2019-04-25T12:22:51.575Z,23.88
2019-04-25T12:25:19.959Z,23.33
2019-04-25T12:27:49.954Z,24.34
2019-04-25T12:30:19.759Z,24.02
2019-04-25T12:32:47.930Z,23.28
2019-04-25T12:35:14.983Z,23.78
2019-04-25T12:37:45.646Z,24.05
2019-04-25T12:40:14.044Z,24.26
2019-04-25T12:42:42.195Z,22.57
2019-04-25T12:45:09.384Z,24.10
2019-04-25T12:47:38.802Z,24.06
2019-04-25T12:50:09.363Z,22.25
2019-04-25T12:52:37.554Z,23.49
2019-04-25T12:55:05.333Z,22.60
2019-04-25T12:57:35.075Z,22.26
2019-04-25T13:00:04.058Z,22.85
2019-04-25T13:02:36.348Z,22.10
2019-04-25T13:05:01.873Z,23.46
2019-04-25T13:07:29.099Z,22.12
2019-04-25T13:09:57.206Z,22.47
2019-04-25T13:12:26.778Z,22.64
2019-04-25T13:14:54.547Z,21.98
2019-04-25T13:17:24.204Z,21.50
2019-04-25T13:19:51.387Z,22.91
2019-04-25T13:22:20.223Z,22.11
2019-04-25T13:24:49.538Z,22.19
2019-04-25T13:27:18.789Z,22.60
2019-04-25T13:29:47.856Z,22.11
2019-04-25T13:32:14.677Z,22.22
2019-04-25T13:34:41.554Z,22.14
2019-04-25T13:37:08.950Z,23.02
2019-04-25T13:39:37.871Z,23.35
2019-04-25T13:42:07.961Z,22.43
2019-04-25T13:44:36.088Z,22.59
2019-04-25T13:47:04.974Z,22.20
2019-04-25T13:49:37.381Z,22.32
2019-04-25T13:52:05.890Z,23.83
2019-04-25T13:54:50.366Z,24.74
2019-04-25T13:57:18.235Z,25.10
2019-04-25T13:59:49.394Z,25.02
2019-04-25T14:02:20.271Z,23.49
2019-04-25T14:04:48.756Z,23.43
2019-04-25T14:07:19.170Z,23.64
2019-04-25T14:09:48.696Z,23.79
2019-04-25T14:12:17.148Z,21.49
2019-04-25T14:14:44.346Z,21.50
2019-04-25T14:17:13.807Z,22.95
2019-04-25T14:19:40.599Z,22.74
2019-04-25T14:22:10.664Z,22.60
2019-04-25T14:24:39.435Z,22.71
2019-04-25T14:27:06.594Z,22.48
2019-04-25T14:29:35.615Z,22.50
2019-04-25T14:32:06.209Z,21.49
2019-04-25T14:34:33.785Z,21.20
2019-04-25T14:37:03.066Z,22.24
2019-04-25T14:39:32.302Z,22.14
2019-04-25T14:42:00.128Z,21.77
2019-04-25T14:44:31.259Z,21.75
2019-04-25T14:46:58.590Z,22.28
2019-04-25T14:49:26.304Z,22.08
2019-04-25T14:54:26.375Z,23.07
2019-04-25T14:56:53.519Z,22.60
2019-04-25T14:59:24.456Z,22.08
2019-04-25T15:01:51.715Z,23.25
2019-04-25T15:04:19.606Z,22.64
2019-04-25T15:06:48.851Z,22.68
2019-04-25T15:09:17.677Z,22.86
2019-04-25T15:11:44.357Z,23.16
2019-04-25T15:14:13.294Z,22.66
2019-04-25T15:16:42.486Z,23.69
2019-04-25T15:19:09.350Z,23.20
2019-04-25T15:21:38.907Z,23.16
2019-04-25T15:24:08.375Z,24.01
2019-04-25T15:26:35.597Z,23.87
2019-04-25T15:29:03.521Z,24.33
2019-04-25T15:31:32.024Z,24.07
2019-04-25T15:34:02.241Z,23.78
2019-04-25T15:36:28.512Z,24.10
2019-04-25T15:38:58.774Z,24.03
2019-04-25T15:41:28.317Z,22.86
2019-04-25T15:43:58.050Z,23.51
2019-04-25T15:46:30.177Z,22.81
2019-04-25T15:49:00.472Z,23.43
2019-04-25T15:51:30.467Z,23.51
2019-04-25T15:53:58.438Z,24.23
2019-04-25T15:56:25.685Z,23.56
2019-04-25T15:58:56.600Z,22.78
2019-04-25T16:01:26.488Z,23.20
2019-04-25T16:03:53.325Z,24.50
2019-04-25T16:06:23.826Z,25.14
2019-04-25T16:08:52.198Z,24.17
2019-04-25T16:11:19.376Z,25.28
2019-04-25T16:13:48.498Z,24.71
2019-04-25T16:16:15.604Z,24.08
2019-04-25T16:18:44.610Z,24.28
2019-04-25T16:21:14.850Z,25.17
2019-04-25T16:23:44.998Z,25.71
2019-04-25T16:26:11.808Z,25.51
2019-04-25T16:28:40.006Z,24.32
2019-04-25T16:31:08.101Z,25.27
2019-04-25T16:33:35.665Z,25.66
2019-04-25T16:36:21.956Z,26.24
2019-04-25T16:38:50.087Z,26.28
2019-04-25T16:41:18.801Z,26.43
2019-04-25T16:43:48.141Z,26.37
2019-04-25T16:46:14.986Z,26.76
2019-04-25T16:48:44.475Z,26.88
2019-04-25T16:51:18.158Z,27.52
2019-04-25T16:53:45.024Z,27.48
2019-04-25T16:56:16.455Z,27.28
2019-04-25T16:58:45.461Z,27.47
2019-04-25T17:01:15.060Z,27.70
2019-04-25T17:03:42.005Z,27.75
2019-04-25T17:06:10.712Z,27.55
2019-04-25T17:08:40.300Z,28.31
2019-04-25T17:11:07.184Z,27.48
2019-04-25T17:13:38.015Z,27.41
2019-04-25T17:16:06.357Z,28.02
2019-04-25T17:18:36.540Z,27.89
2019-04-25T17:21:05.818Z,27.69
2019-04-25T17:23:34.787Z,28.39
2019-04-25T17:26:01.671Z,28.75
2019-04-25T17:28:30.318Z,28.98
2019-04-25T17:30:58.421Z,28.79
2019-04-25T17:33:28.953Z,28.75
2019-04-25T17:35:55.523Z,29.13
2019-04-25T17:38:23.619Z,29.27
2019-04-25T17:40:50.887Z,28.70
2019-04-25T17:43:19.863Z,29.09
2019-04-25T17:45:47.515Z,29.49
2019-04-25T17:48:16.699Z,30.43
2019-04-25T17:50:45.935Z,30.40
2019-04-25T17:53:13.113Z,30.13
2019-04-25T17:55:43.827Z,30.12
2019-04-25T17:58:12.944Z,30.03
2019-04-25T18:00:39.710Z,30.21
2019-04-25T18:03:09.144Z,29.91
2019-04-25T18:05:39.267Z,30.12
2019-04-25T18:08:10.522Z,30.23
2019-04-25T18:10:41.923Z,30.21
2019-04-25T18:13:10.531Z,30.77
2019-04-25T18:15:41.726Z,30.80
2019-04-25T18:18:11.356Z,30.96
2019-04-25T18:20:43.142Z,31.15
2019-04-25T18:23:10.021Z,31.17
2019-04-25T18:25:39.129Z,31.36
2019-04-25T18:28:07.845Z,31.29
2019-04-25T18:30:36.936Z,31.52
2019-04-25T18:33:10.579Z,31.55
2019-04-25T18:35:39.170Z,31.78
2019-04-25T18:38:07.344Z,32.38
2019-04-25T18:43:14.929Z,31.51
2019-04-25T18:45:52.330Z,31.57
2019-04-25T18:48:29.572Z,31.59
2019-04-25T18:50:59.743Z,31.82
2019-04-25T18:53:27.492Z,31.85
2019-04-25T18:55:56.607Z,31.50
2019-04-25T18:58:25.686Z,31.69
2019-04-25T19:00:52.818Z,31.79
2019-04-25T19:03:25.911Z,32.20
2019-04-25T19:05:51.572Z,31.83
2019-04-25T19:08:21.426Z,32.00
2019-04-25T19:10:48.493Z,31.97
2019-04-25T19:13:18.744Z,31.91
2019-04-25T19:15:49.599Z,31.77
2019-04-25T19:18:17.323Z,31.89
2019-04-25T19:20:46.034Z,31.79
2019-04-25T19:23:16.690Z,31.73
2019-04-25T19:25:48.551Z,32.04
2019-04-25T19:31:07.219Z,32.57
2019-04-25T19:33:35.800Z,32.37
2019-04-25T19:36:03.015Z,32.41
2019-04-25T19:38:33.349Z,32.22
2019-04-25T19:41:02.543Z,32.44
2019-04-25T19:43:34.222Z,32.72
2019-04-25T19:46:06.505Z,32.80
2019-04-25T19:48:34.159Z,33.04
2019-04-25T19:51:02.345Z,33.18
2019-04-25T19:56:15.967Z,32.99
2019-04-25T19:58:45.004Z,33.05
2019-04-25T20:01:15.182Z,33.48
2019-04-25T20:03:54.990Z,33.76
2019-04-25T20:06:15.017Z,33.16
2019-04-25T20:08:42.465Z,33.44
2019-04-25T20:11:18.284Z,33.20
2019-04-25T20:13:49.243Z,33.01
2019-04-25T20:16:21.371Z,33.03
2019-04-25T20:18:51.906Z,34.38
2019-04-25T20:21:26.033Z,34.28
2019-04-25T20:23:54.460Z,34.34
2019-04-25T20:26:24.706Z,34.73
2019-04-25T20:28:53.558Z,35.02
2019-04-25T20:31:26.793Z,35.52
2019-04-25T20:34:05.402Z,35.66
2019-04-25T20:36:28.720Z,35.64
2019-04-25T20:38:57.910Z,35.54
2019-04-25T20:41:32.905Z,35.63
2019-04-25T20:44:01.817Z,35.52
2019-04-25T20:46:31.009Z,35.76
2019-04-25T20:49:03.534Z,35.81
2019-04-25T20:51:33.293Z,35.95
2019-04-25T20:54:02.678Z,36.00
2019-04-25T20:56:32.802Z,36.49
2019-04-25T20:59:00.957Z,36.50
2019-04-25T21:01:30.006Z,36.42
2019-04-25T21:04:13.282Z,37.39
2019-04-25T21:06:40.081Z,37.45
2019-04-25T21:09:07.201Z,37.66
2019-04-25T21:11:41.688Z,38.12
2019-04-25T21:14:07.533Z,37.89
2019-04-25T21:16:34.738Z,38.14
2019-04-25T21:19:02.724Z,38.33
2019-04-25T21:21:33.849Z,38.65
2019-04-25T21:24:09.695Z,38.86
2019-04-25T21:26:40.389Z,39.04
2019-04-25T21:29:10.932Z,39.07
2019-04-25T21:31:45.191Z,39.27
2019-04-25T21:34:25.478Z,39.53
2019-04-25T21:36:44.746Z,39.92
2019-04-25T21:39:19.414Z,39.98
2019-04-25T21:41:48.527Z,39.38
2019-04-25T21:44:17.716Z,40.01
2019-04-25T21:46:48.529Z,40.73
2019-04-25T21:49:16.655Z,40.60
2019-04-25T21:51:45.289Z,41.37
2019-04-25T21:54:15.764Z,41.64
2019-04-25T21:56:43.296Z,41.18
2019-04-25T21:59:14.528Z,41.33
2019-04-25T22:01:45.210Z,41.55
2019-04-25T22:04:20.052Z,41.41
2019-04-25T22:06:46.979Z,41.67
2019-04-25T22:09:14.775Z,42.12
2019-04-25T22:11:42.202Z,41.71
2019-04-25T22:14:12.875Z,41.19
2019-04-25T22:16:41.238Z,41.74
2019-04-25T22:19:10.506Z,42.23
2019-04-25T22:21:41.143Z,42.41
2019-04-25T22:24:14.814Z,42.50
2019-04-25T22:26:44.644Z,43.01
2019-04-25T22:29:11.208Z,42.96
2019-04-25T22:31:38.170Z,43.56
2019-04-25T22:34:06.664Z,43.18
2019-04-25T22:36:34.489Z,43.98
2019-04-25T22:39:03.661Z,43.33
2019-04-25T22:41:31.476Z,43.83
2019-04-25T22:43:58.200Z,43.73
2019-04-25T22:46:29.512Z,43.85
2019-04-25T22:48:56.228Z,43.96
2019-04-25T22:51:24.806Z,44.69
2019-04-25T22:53:51.492Z,44.52
2019-04-25T22:56:18.312Z,44.61
2019-04-25T22:58:44.974Z,44.69
2019-04-25T23:01:14.737Z,44.97
2019-04-25T23:03:41.570Z,45.08
2019-04-25T23:06:09.659Z,45.10
2019-04-25T23:08:38.140Z,45.54
2019-04-25T23:11:08.845Z,45.65
2019-04-25T23:13:37.360Z,46.24
2019-04-25T23:16:05.096Z,46.28
2019-04-25T23:18:32.263Z,46.63
2019-04-25T23:20:58.867Z,46.64
2019-04-25T23:23:32.232Z,46.39
2019-04-25T23:25:57.127Z,46.36
2019-04-25T23:28:25.958Z,46.72
2019-04-25T23:30:54.270Z,46.87
2019-04-25T23:33:23.871Z,46.40
2019-04-25T23:35:52.947Z,46.31
2019-04-25T23:38:22.086Z,47.13
2019-04-25T23:40:52.222Z,47.01
2019-04-25T23:43:19.592Z,47.68
2019-04-25T23:45:46.668Z,47.58
2019-04-25T23:48:14.477Z,47.62
2019-04-25T23:50:45.642Z,47.83
2019-04-25T23:53:21.201Z,48.22
2019-04-25T23:55:50.355Z,48.48
2019-04-25T23:58:18.316Z,48.36
